This is the latest recevied weather packets stored in our database for station/object EA5EN. If no packets are shown the sender has not sent any weather packets the latest 10 day(s).
| Time | Temp. | Humidity | Pressure | Rain* | Wind** | Luminosity | Snow |
|---|---|---|---|---|---|---|---|
| 1777327570 | 16.11° C | 89% | 1016.3 hPa | 0 mm | - | - | - |
| 1777324544 | 16.11° C | 88% | 1016.6 hPa | 0 mm | - | - | - |
| 1777319156 | 17.22° C | 79% | 1016.3 hPa | 0 mm | - | - | - |
| 1777311348 | 20.56° C | 60% | 1015.3 hPa | 0 mm | - | - | - |
| 1777310138 | 21.11° C | 59% | 1015.3 hPa | 0 mm | - | - | - |
| 1777307717 | 21.67° C | 54% | 1015.5 hPa | 0 mm | - | - | - |
| 1777307172 | 21.67° C | 52% | 1015.4 hPa | 0 mm | - | - | - |
| 1777305375 | 22.78° C | 46% | 1015.6 hPa | 0 mm | - | - | - |
| 1777303540 | 23.33° C | 45% | 1015.6 hPa | 0 mm | - | - | - |
| 1777301120 | 22.78° C | 48% | 1016.2 hPa | 0 mm | - | - | - |
| 1777300575 | 22.22° C | 49% | 1016.3 hPa | 0 mm | - | - | - |
| 1777297548 | 23.33° C | 40% | 1016.6 hPa | 0 mm | - | - | - |
| 1777296963 | 23.33° C | 41% | 1016.9 hPa | 0 mm | - | - | - |
| 1777291557 | 22.22° C | 42% | 1017.4 hPa | 0 mm | - | - | - |
| 1777288531 | 22.22° C | 45% | 1017.7 hPa | 0 mm | - | - | - |
| 1777287926 | 21.67° C | 50% | 1018 hPa | 0 mm | - | - | - |
| 1777287321 | 21.67° C | 52% | 1018.2 hPa | 0 mm | - | - | - |
| 1777284958 | 21.11° C | 56% | 1018.3 hPa | 0 mm | - | - | - |
| 1777284353 | 20.56° C | 57% | 1018.4 hPa | 0 mm | - | - | - |
| 1777283748 | 20.56° C | 59% | 1018.5 hPa | 0 mm | - | - | - |
| 1777281328 | 19.44° C | 65% | 1018.5 hPa | 0 mm | - | - | - |
| 1777278968 | 19.44° C | 67% | 1018.5 hPa | 0 mm | - | - | - |
| 1777275940 | 16.67° C | 76% | 1018.4 hPa | 0 mm | - | - | - |
| 1777273520 | 15.56° C | 80% | 1018.7 hPa | 0 mm | - | - | - |
| 1777271764 | 13.89° C | 86% | 1018.9 hPa | 0 mm | - | - | - |
* Rain latest hour (hover to see other rain measurements)
** Current wind speed in m/s (hover to see current wind gust speed)